createdAt,value
2017-07-08T00:00:15.491Z,18.94
2017-07-08T00:01:25.775Z,18.92
2017-07-08T00:02:36.305Z,19.05
2017-07-08T00:03:46.605Z,19.01
2017-07-08T00:04:56.884Z,19
2017-07-08T00:06:07.156Z,18.94
2017-07-08T00:07:17.420Z,18.96
2017-07-08T00:08:28.039Z,19
2017-07-08T00:09:37.977Z,18.98
2017-07-08T00:10:47.936Z,18.98
2017-07-08T00:11:57.570Z,19.07
2017-07-08T00:13:07.858Z,18.96
2017-07-08T00:14:18.061Z,19.05
2017-07-08T00:15:28.342Z,19
2017-07-08T00:16:38.297Z,19.01
2017-07-08T00:17:48.276Z,18.92
2017-07-08T00:18:58.548Z,18.94
2017-07-08T00:20:09.081Z,18.89
2017-07-08T00:21:19.029Z,18.91
2017-07-08T00:22:29.290Z,18.94
2017-07-08T00:23:39.549Z,18.91
2017-07-08T00:24:49.506Z,18.92
2017-07-08T00:26:00.049Z,18.91
2017-07-08T00:27:10.343Z,18.94
2017-07-08T00:28:20.635Z,18.89
2017-07-08T00:29:30.910Z,18.85
2017-07-08T00:30:41.224Z,18.85
2017-07-08T00:31:51.748Z,18.74
2017-07-08T00:33:01.712Z,18.7
2017-07-08T00:34:11.366Z,18.79
2017-07-08T00:35:21.322Z,18.73
2017-07-08T00:36:31.591Z,18.74
2017-07-08T00:37:41.790Z,18.7
2017-07-08T00:38:52.056Z,18.78
2017-07-08T00:40:02.012Z,18.76
2017-07-08T00:41:11.964Z,18.89
2017-07-08T00:42:22.237Z,18.89
2017-07-08T00:43:32.809Z,18.89
2017-07-08T00:44:42.774Z,18.89
2017-07-08T00:45:53.043Z,18.94
2017-07-08T00:47:02.683Z,18.91
2017-07-08T00:48:12.635Z,18.83
2017-07-08T00:49:23.198Z,18.71
2017-07-08T00:50:33.473Z,18.78
2017-07-08T00:51:43.118Z,18.73
2017-07-08T00:52:53.377Z,18.68
2017-07-08T00:54:03.646Z,18.55
2017-07-08T00:55:14.202Z,18.58
2017-07-08T00:56:24.490Z,18.58
2017-07-08T00:57:34.751Z,18.46
2017-07-08T00:58:45.015Z,18.46
2017-07-08T00:59:54.965Z,18.52
2017-07-08T01:01:05.173Z,18.48
2017-07-08T01:02:15.140Z,18.48
2017-07-08T01:03:25.399Z,18.51
2017-07-08T01:04:35.658Z,18.49
2017-07-08T01:05:45.905Z,18.46
2017-07-08T01:06:56.483Z,18.49
2017-07-08T01:08:06.423Z,18.57
2017-07-08T01:09:16.387Z,18.46
2017-07-08T01:10:26.652Z,18.46
2017-07-08T01:11:36.932Z,18.52
2017-07-08T01:12:47.559Z,18.49
2017-07-08T01:13:57.821Z,18.46
2017-07-08T01:15:08.081Z,18.43
2017-07-08T01:16:18.354Z,18.42
2017-07-08T01:17:28.621Z,18.41
2017-07-08T01:18:38.521Z,18.34
2017-07-08T01:19:48.800Z,18.34
2017-07-08T01:20:59.088Z,18.34
2017-07-08T01:22:09.347Z,18.26
2017-07-08T01:23:19.591Z,18.39
2017-07-08T01:24:30.158Z,18.36
2017-07-08T01:25:40.105Z,18.36
2017-07-08T01:26:50.044Z,18.3
2017-07-08T01:28:00.310Z,18.21
2017-07-08T01:29:10.579Z,18.18
2017-07-08T01:30:21.150Z,18.26
2017-07-08T01:31:30.786Z,18.21
2017-07-08T01:32:41.038Z,18.12
2017-07-08T01:33:50.980Z,18.06
2017-07-08T01:35:01.269Z,18.05
2017-07-08T01:36:11.836Z,17.93
2017-07-08T01:37:21.773Z,18.03
2017-07-08T01:38:31.719Z,17.98
2017-07-08T01:39:41.988Z,17.91
2017-07-08T01:40:52.246Z,18
2017-07-08T01:42:02.497Z,17.94
2017-07-08T01:43:12.754Z,17.93
2017-07-08T01:44:23.030Z,17.93
2017-07-08T01:45:33.301Z,17.91
2017-07-08T01:46:43.571Z,17.91
2017-07-08T01:47:53.833Z,17.91
2017-07-08T01:49:04.093Z,17.9
2017-07-08T01:50:14.058Z,17.93
2017-07-08T01:51:24.012Z,17.91
2017-07-08T01:52:34.269Z,17.8
2017-07-08T01:53:44.534Z,17.79
2017-07-08T01:54:54.495Z,17.73
2017-07-08T01:56:04.777Z,17.73
2017-07-08T01:57:15.051Z,17.79
2017-07-08T01:58:25.321Z,17.72
2017-07-08T01:59:35.889Z,17.68
2017-07-08T02:00:46.160Z,17.71
2017-07-08T02:01:56.419Z,17.68
2017-07-08T02:03:06.383Z,17.63
2017-07-08T02:04:16.044Z,17.6
2017-07-08T02:05:26.554Z,17.66
2017-07-08T02:06:36.520Z,17.63
2017-07-08T02:07:46.494Z,17.65
2017-07-08T02:08:56.758Z,17.65
2017-07-08T02:10:06.720Z,17.68
2017-07-08T02:11:17.296Z,17.69
2017-07-08T02:12:27.580Z,17.66
2017-07-08T02:13:37.514Z,17.6
2017-07-08T02:14:47.792Z,17.68
2017-07-08T02:15:58.118Z,17.57
2017-07-08T02:17:08.638Z,17.52
2017-07-08T02:18:18.919Z,17.53
2017-07-08T02:19:29.191Z,17.6
2017-07-08T02:20:39.451Z,17.53
2017-07-08T02:21:49.720Z,17.44
2017-07-08T02:23:00.286Z,17.53
2017-07-08T02:24:10.546Z,17.49
2017-07-08T02:25:20.813Z,17.52
2017-07-08T02:26:30.783Z,17.47
2017-07-08T02:27:40.735Z,17.44
2017-07-08T02:28:51.262Z,17.39
2017-07-08T02:30:01.521Z,17.41
2017-07-08T02:31:11.794Z,17.44
2017-07-08T02:32:22.074Z,17.39
2017-07-08T02:33:32.317Z,17.35
2017-07-08T02:34:42.530Z,17.32
2017-07-08T02:35:52.489Z,17.3
2017-07-08T02:37:02.429Z,17.22
2017-07-08T02:38:12.937Z,17.2
2017-07-08T02:39:23.202Z,17.13
2017-07-08T02:40:33.783Z,17.19
2017-07-08T02:41:44.049Z,17.13
2017-07-08T02:42:54.315Z,17.05
2017-07-08T02:44:04.589Z,17.12
2017-07-08T02:45:14.865Z,17.2
2017-07-08T02:46:25.432Z,17.16
2017-07-08T02:47:35.383Z,17.12
2017-07-08T02:48:45.651Z,17.13
2017-07-08T02:49:55.906Z,17.19
2017-07-08T02:51:05.863Z,17.14
2017-07-08T02:52:16.445Z,17.17
2017-07-08T02:53:26.724Z,17.14
2017-07-08T02:54:36.995Z,17.09
2017-07-08T02:55:47.276Z,17.12
2017-07-08T02:56:57.559Z,17.14
2017-07-08T02:58:08.118Z,16.99
2017-07-08T02:59:18.380Z,17.04
2017-07-08T03:00:28.703Z,17.04
2017-07-08T03:01:38.971Z,17.12
2017-07-08T03:02:48.921Z,17.12
2017-07-08T03:03:59.184Z,17.04
2017-07-08T03:05:09.135Z,17.04
2017-07-08T03:06:19.422Z,16.95
2017-07-08T03:07:29.682Z,16.92
2017-07-08T03:08:39.950Z,16.89
2017-07-08T03:09:50.146Z,16.91
2017-07-08T03:11:00.422Z,16.79
2017-07-08T03:12:10.376Z,16.79
2017-07-08T03:13:20.646Z,16.76
2017-07-08T03:14:30.590Z,16.72
2017-07-08T03:15:41.112Z,16.76
2017-07-08T03:16:51.393Z,16.79
2017-07-08T03:18:01.347Z,16.74
2017-07-08T03:19:11.307Z,16.8
2017-07-08T03:20:21.604Z,16.86
2017-07-08T03:21:32.182Z,16.87
2017-07-08T03:22:42.131Z,16.92
2017-07-08T03:23:52.089Z,16.84
2017-07-08T03:25:02.354Z,16.86
2017-07-08T03:26:11.989Z,16.86
2017-07-08T03:27:22.512Z,16.8
2017-07-08T03:28:32.790Z,16.97
2017-07-08T03:29:43.052Z,16.95
2017-07-08T03:30:53.313Z,17.05
2017-07-08T03:32:03.621Z,17.05
2017-07-08T03:33:14.177Z,17.09
2017-07-08T03:34:24.452Z,17.01
2017-07-08T03:35:34.711Z,17.1
2017-07-08T03:36:44.975Z,17.17
2017-07-08T03:37:55.236Z,17.12
2017-07-08T03:39:05.563Z,17.04
2017-07-08T03:40:15.838Z,17.07
2017-07-08T03:41:25.782Z,17.13
2017-07-08T03:42:35.723Z,17.07
2017-07-08T03:43:46.000Z,17.09
2017-07-08T03:44:56.515Z,17.1
2017-07-08T03:46:06.785Z,17.19
2017-07-08T03:47:17.059Z,17.19
2017-07-08T03:48:27.017Z,17.13
2017-07-08T03:49:37.284Z,17.24
2017-07-08T03:50:47.874Z,17.22
2017-07-08T03:51:57.813Z,17.23
2017-07-08T03:53:07.770Z,17.23
2017-07-08T03:54:18.039Z,17.27
2017-07-08T03:55:28.299Z,17.2
2017-07-08T03:56:38.872Z,17.23
2017-07-08T03:57:49.130Z,17.28
2017-07-08T03:58:59.397Z,17.27
2017-07-08T04:00:09.675Z,17.28
2017-07-08T04:01:19.930Z,17.31
2017-07-08T04:02:30.493Z,17.28
2017-07-08T04:03:40.454Z,17.31
2017-07-08T04:04:50.730Z,17.32
2017-07-08T04:06:00.995Z,17.35
2017-07-08T04:07:11.270Z,17.34
2017-07-08T04:08:21.789Z,17.34
2017-07-08T04:09:32.065Z,17.42
2017-07-08T04:10:42.026Z,17.38
2017-07-08T04:11:51.973Z,17.52
2017-07-08T04:13:01.938Z,17.5
2017-07-08T04:14:12.154Z,17.47
2017-07-08T04:15:22.112Z,17.5
2017-07-08T04:16:32.049Z,17.54
2017-07-08T04:17:41.994Z,17.46
2017-07-08T04:18:52.014Z,17.6
2017-07-08T04:20:02.267Z,17.63
2017-07-08T04:21:12.530Z,17.65
2017-07-08T04:22:22.797Z,17.65
2017-07-08T04:23:33.084Z,17.6
2017-07-08T04:24:43.352Z,17.6
2017-07-08T04:25:53.988Z,17.71
2017-07-08T04:27:04.262Z,17.69
2017-07-08T04:28:14.219Z,17.65
2017-07-08T04:29:24.171Z,17.71
2017-07-08T04:30:34.495Z,17.68
2017-07-08T04:31:45.073Z,17.66
2017-07-08T04:32:55.028Z,17.65
2017-07-08T04:34:04.971Z,17.69
2017-07-08T04:35:15.272Z,17.72
2017-07-08T04:36:25.540Z,17.72
2017-07-08T04:37:35.796Z,17.78
2017-07-08T04:38:45.804Z,17.68
2017-07-08T04:39:56.079Z,17.76
2017-07-08T04:41:06.348Z,17.8
2017-07-08T04:42:16.624Z,17.87
2017-07-08T04:43:26.837Z,17.8
2017-07-08T04:44:36.785Z,17.91
2017-07-08T04:45:47.058Z,17.9
2017-07-08T04:46:57.328Z,17.97
2017-07-08T04:48:07.599Z,17.91
2017-07-08T04:49:18.120Z,18.05
2017-07-08T04:50:28.403Z,17.98
2017-07-08T04:51:38.683Z,18.08
2017-07-08T04:52:48.633Z,18.03
2017-07-08T04:53:58.583Z,18.16
2017-07-08T04:55:09.140Z,18.12
2017-07-08T04:56:19.426Z,18.12
2017-07-08T04:57:29.692Z,18.15
2017-07-08T04:58:39.652Z,18.28
2017-07-08T04:59:49.917Z,18.21
2017-07-08T05:01:00.125Z,18.26
2017-07-08T05:02:10.094Z,18.21
2017-07-08T05:03:20.351Z,18.26
2017-07-08T05:04:30.791Z,18.23
2017-07-08T05:05:40.738Z,18.36
2017-07-08T05:06:50.944Z,18.34
2017-07-08T05:08:00.891Z,18.34
2017-07-08T05:09:11.149Z,18.49
2017-07-08T05:10:21.408Z,18.39
2017-07-08T05:11:31.368Z,18.36
2017-07-08T05:12:41.884Z,18.36
2017-07-08T05:13:52.167Z,18.48
2017-07-08T05:15:01.810Z,18.51
2017-07-08T05:16:12.093Z,18.48
2017-07-08T05:17:22.454Z,18.45
2017-07-08T05:18:32.652Z,18.45
2017-07-08T05:19:42.924Z,18.46
2017-07-08T05:20:53.237Z,18.51
2017-07-08T05:22:03.181Z,18.57
2017-07-08T05:23:13.135Z,18.61
2017-07-08T05:24:23.642Z,18.7
2017-07-08T05:25:33.905Z,18.63
2017-07-08T05:26:44.158Z,18.68
2017-07-08T05:27:54.473Z,18.68
2017-07-08T05:29:04.439Z,18.74
2017-07-08T05:30:15.028Z,18.7
2017-07-08T05:31:25.284Z,18.74
2017-07-08T05:32:35.567Z,18.96
2017-07-08T05:33:45.841Z,18.91
2017-07-08T05:34:55.778Z,19.04
2017-07-08T05:36:06.355Z,19.07
2017-07-08T05:37:16.628Z,19.2
2017-07-08T05:38:26.895Z,19.24
2017-07-08T05:39:37.165Z,19.32
2017-07-08T05:40:47.125Z,19.37
2017-07-08T05:41:57.658Z,19.34
2017-07-08T05:43:07.936Z,19.47
2017-07-08T05:44:18.202Z,19.41
2017-07-08T05:45:28.472Z,19.44
2017-07-08T05:46:38.740Z,19.45
2017-07-08T05:47:49.316Z,19.45
2017-07-08T05:48:59.590Z,19.42
2017-07-08T05:50:09.882Z,19.59
2017-07-08T05:51:20.144Z,19.59
2017-07-08T05:52:30.397Z,19.62
2017-07-08T05:53:40.924Z,19.71
2017-07-08T05:54:50.876Z,19.74
2017-07-08T05:56:00.836Z,19.67
2017-07-08T05:57:10.782Z,19.82
2017-07-08T05:58:21.037Z,19.84
2017-07-08T05:59:30.931Z,19.77
2017-07-08T06:00:41.201Z,19.82
2017-07-08T06:01:51.470Z,19.82
2017-07-08T06:03:01.430Z,19.82
2017-07-08T06:04:11.700Z,19.72
2017-07-08T06:05:22.221Z,19.81
2017-07-08T06:06:32.484Z,19.81
2017-07-08T06:07:42.749Z,19.87
2017-07-08T06:08:53.022Z,19.82
2017-07-08T06:10:03.295Z,19.84
2017-07-08T06:11:13.501Z,19.77
2017-07-08T06:12:23.813Z,19.77
2017-07-08T06:13:33.765Z,19.85
2017-07-08T06:14:44.082Z,19.78
2017-07-08T06:15:54.031Z,19.74
2017-07-08T06:17:04.553Z,19.74
2017-07-08T06:18:14.816Z,19.71
2017-07-08T06:19:25.090Z,19.81
2017-07-08T06:20:35.357Z,19.79
2017-07-08T06:21:45.322Z,19.75
2017-07-08T06:22:55.837Z,19.75
2017-07-08T06:24:05.777Z,19.84
2017-07-08T06:25:15.714Z,19.85
2017-07-08T06:26:25.984Z,19.82
2017-07-08T06:27:36.250Z,19.75
2017-07-08T06:28:46.766Z,19.82
2017-07-08T06:29:57.029Z,19.81
2017-07-08T06:31:06.975Z,19.85
2017-07-08T06:32:17.256Z,19.78
2017-07-08T06:33:26.881Z,19.81
2017-07-08T06:34:37.100Z,19.87
2017-07-08T06:35:47.381Z,19.81
2017-07-08T06:36:57.661Z,19.85
2017-07-08T06:38:07.604Z,19.74
2017-07-08T06:39:17.252Z,19.67
2017-07-08T06:40:27.842Z,19.75
2017-07-08T06:41:37.490Z,19.85
2017-07-08T06:42:47.866Z,19.78
2017-07-08T06:43:58.161Z,19.77
2017-07-08T06:45:08.422Z,19.75
2017-07-08T06:46:18.946Z,19.85
2017-07-08T06:47:29.212Z,19.84
2017-07-08T06:48:39.482Z,19.78
2017-07-08T06:49:49.759Z,19.81
2017-07-08T06:51:00.040Z,19.75
2017-07-08T06:52:09.610Z,19.79
2017-07-08T06:53:19.878Z,19.85
2017-07-08T06:54:30.144Z,19.75
2017-07-08T06:55:40.418Z,19.66
2017-07-08T06:56:50.364Z,19.72
2017-07-08T06:58:00.885Z,19.66
2017-07-08T06:59:11.175Z,19.71
2017-07-08T07:00:21.123Z,19.75
2017-07-08T07:01:31.079Z,19.72
2017-07-08T07:02:41.350Z,19.74
2017-07-08T07:03:51.856Z,19.67
2017-07-08T07:05:02.176Z,19.74
2017-07-08T07:06:12.452Z,19.75
2017-07-08T07:07:22.723Z,19.81
2017-07-08T07:08:32.981Z,19.82
2017-07-08T07:09:43.194Z,19.81
2017-07-08T07:10:53.465Z,19.79
2017-07-08T07:12:03.738Z,19.77
2017-07-08T07:13:14.032Z,19.82
2017-07-08T07:14:24.301Z,19.89
2017-07-08T07:15:34.815Z,19.78
2017-07-08T07:16:45.114Z,19.81
2017-07-08T07:17:55.065Z,19.78
2017-07-08T07:19:05.329Z,19.85
2017-07-08T07:20:15.603Z,19.78
2017-07-08T07:21:26.143Z,19.81
2017-07-08T07:22:36.418Z,19.75
2017-07-08T07:23:46.683Z,19.82
2017-07-08T07:24:56.633Z,19.77
2017-07-08T07:26:06.264Z,19.79
2017-07-08T07:27:16.784Z,19.78
2017-07-08T07:28:26.719Z,19.84
2017-07-08T07:29:37.043Z,19.77
2017-07-08T07:30:47.310Z,19.81
2017-07-08T07:31:57.308Z,19.67
2017-07-08T07:33:07.833Z,19.75
2017-07-08T07:34:17.793Z,19.78
2017-07-08T07:35:28.067Z,19.71
2017-07-08T07:36:38.330Z,19.72
2017-07-08T07:37:48.589Z,19.71
2017-07-08T07:38:58.791Z,19.66
2017-07-08T07:40:09.062Z,19.72
2017-07-08T07:41:19.341Z,19.81
2017-07-08T07:42:29.293Z,19.71
2017-07-08T07:43:39.592Z,19.67
2017-07-08T07:44:49.814Z,19.72
2017-07-08T07:46:00.094Z,19.72
2017-07-08T07:47:10.370Z,19.67
2017-07-08T07:48:20.636Z,19.71
2017-07-08T07:49:30.908Z,19.71
2017-07-08T07:50:41.449Z,19.72
2017-07-08T07:51:51.720Z,19.72
2017-07-08T07:53:01.988Z,19.71
2017-07-08T07:54:12.284Z,19.7
2017-07-08T07:55:22.573Z,19.74
2017-07-08T07:56:33.090Z,19.7
2017-07-08T07:57:42.751Z,19.81
2017-07-08T07:58:53.013Z,19.79
2017-07-08T08:00:02.960Z,19.7
2017-07-08T08:01:13.228Z,19.75
2017-07-08T08:02:23.481Z,19.78
2017-07-08T08:03:33.761Z,19.74
2017-07-08T08:04:44.040Z,19.84
2017-07-08T08:05:54.004Z,19.75
2017-07-08T08:07:03.975Z,19.75
2017-07-08T08:08:14.496Z,19.78
2017-07-08T08:09:24.456Z,19.87
2017-07-08T08:10:34.728Z,19.85
2017-07-08T08:11:45.018Z,19.97
2017-07-08T08:12:55.307Z,19.93
2017-07-08T08:14:05.880Z,19.89
2017-07-08T08:15:15.829Z,19.82
2017-07-08T08:16:25.805Z,19.85
2017-07-08T08:17:35.764Z,19.82
2017-07-08T08:18:46.041Z,19.87
2017-07-08T08:19:56.557Z,19.9
2017-07-08T08:21:06.829Z,20
2017-07-08T08:22:17.098Z,19.85
2017-07-08T08:23:27.358Z,19.81
2017-07-08T08:24:37.617Z,19.89
2017-07-08T08:25:48.124Z,19.87
2017-07-08T08:26:58.383Z,19.9
2017-07-08T08:28:08.670Z,19.92
2017-07-08T08:29:18.615Z,19.94
2017-07-08T08:30:28.875Z,19.94
2017-07-08T08:31:39.413Z,20.08
2017-07-08T08:32:49.687Z,20.15
2017-07-08T08:33:59.631Z,20.17
2017-07-08T08:35:09.576Z,20.22
2017-07-08T08:36:19.530Z,20.1
2017-07-08T08:37:29.742Z,20.14
2017-07-08T08:38:39.686Z,20.22
2017-07-08T08:39:49.953Z,20.24
2017-07-08T08:41:00.223Z,20.19
2017-07-08T08:42:10.480Z,20.33
2017-07-08T08:43:20.989Z,20.29
2017-07-08T08:44:30.329Z,20.29
2017-07-08T08:45:40.615Z,20.42
2017-07-08T08:46:50.900Z,20.48
2017-07-08T08:48:00.856Z,20.5
2017-07-08T08:49:11.058Z,20.5
2017-07-08T08:50:21.013Z,20.48
2017-07-08T08:51:31.311Z,20.55
2017-07-08T08:52:40.970Z,20.66
2017-07-08T08:53:51.256Z,20.64
2017-07-08T08:55:01.465Z,20.7
2017-07-08T08:56:11.734Z,20.8
2017-07-08T08:57:22.010Z,20.86
2017-07-08T08:58:32.274Z,20.92
2017-07-08T08:59:42.538Z,20.96
2017-07-08T09:00:52.748Z,21.01
2017-07-08T09:02:03.025Z,20.98
2017-07-08T09:03:12.994Z,21.01
2017-07-08T09:04:23.259Z,21.04
2017-07-08T09:05:33.536Z,21.01
2017-07-08T09:06:44.103Z,21.15
2017-07-08T09:07:54.413Z,21.07
2017-07-08T09:09:04.701Z,20.96
2017-07-08T09:10:14.965Z,20.9
2017-07-08T09:11:25.230Z,20.98
2017-07-08T09:12:35.754Z,21.03
2017-07-08T09:13:45.723Z,21.03
2017-07-08T09:14:55.992Z,20.95
2017-07-08T09:16:06.280Z,20.9
2017-07-08T09:17:16.556Z,20.96
2017-07-08T09:18:27.125Z,20.95
2017-07-08T09:19:37.096Z,21
2017-07-08T09:20:47.358Z,21.11
2017-07-08T09:21:57.326Z,21.1
2017-07-08T09:23:07.588Z,21.07
2017-07-08T09:24:17.164Z,21.13
2017-07-08T09:25:27.444Z,21.13
2017-07-08T09:26:37.409Z,21.11
2017-07-08T09:27:47.741Z,21.07
2017-07-08T09:28:57.690Z,21.11
2017-07-08T09:30:08.196Z,21.03
2017-07-08T09:31:18.482Z,20.93
2017-07-08T09:32:28.433Z,20.95
2017-07-08T09:33:38.700Z,20.89
2017-07-08T09:34:48.980Z,20.93
2017-07-08T09:35:59.514Z,20.95
2017-07-08T09:37:09.786Z,20.95
2017-07-08T09:38:20.058Z,20.89
2017-07-08T09:39:30.339Z,21.01
2017-07-08T09:40:40.600Z,20.96
2017-07-08T09:41:51.152Z,21.05
2017-07-08T09:43:01.412Z,21.13
2017-07-08T09:44:11.363Z,21.22
2017-07-08T09:45:21.311Z,21.29
2017-07-08T09:46:31.587Z,21.33
2017-07-08T09:47:41.805Z,21.4
2017-07-08T09:48:52.087Z,21.4
2017-07-08T09:50:02.364Z,21.44
2017-07-08T09:51:12.640Z,21.58
2017-07-08T09:52:22.576Z,21.58
2017-07-08T09:53:32.777Z,21.74
2017-07-08T09:54:43.065Z,21.8
2017-07-08T09:55:53.353Z,21.85
2017-07-08T09:57:03.638Z,21.92
2017-07-08T09:58:13.609Z,21.84
2017-07-08T09:59:23.825Z,22.01
2017-07-08T10:00:34.106Z,21.84
2017-07-08T10:01:44.365Z,21.75
2017-07-08T10:02:54.630Z,21.62
2017-07-08T10:04:04.576Z,21.6
2017-07-08T10:05:15.104Z,21.54
2017-07-08T10:06:25.373Z,21.68
2017-07-08T10:07:35.346Z,21.63
2017-07-08T10:08:45.619Z,21.56
2017-07-08T10:09:55.569Z,21.54
2017-07-08T10:11:06.083Z,21.63
2017-07-08T10:12:16.373Z,21.58
2017-07-08T10:13:26.662Z,21.6
2017-07-08T10:14:36.614Z,21.74
2017-07-08T10:15:46.897Z,21.72
2017-07-08T10:16:57.104Z,21.75
2017-07-08T10:18:07.373Z,21.83
2017-07-08T10:19:17.646Z,21.96
2017-07-08T10:20:27.603Z,22.01
2017-07-08T10:21:37.557Z,22.01
2017-07-08T10:22:47.754Z,22.03
2017-07-08T10:23:58.039Z,22.06
2017-07-08T10:25:08.298Z,22.06
2017-07-08T10:26:18.581Z,22.04
2017-07-08T10:27:28.591Z,22.03
2017-07-08T10:28:39.121Z,21.94
2017-07-08T10:29:49.095Z,21.72
2017-07-08T10:30:59.061Z,21.72
2017-07-08T10:32:09.335Z,21.59
2017-07-08T10:33:19.598Z,21.56
2017-07-08T10:34:30.125Z,21.65
2017-07-08T10:35:40.104Z,21.58
2017-07-08T10:36:50.080Z,21.69
2017-07-08T10:38:00.377Z,21.66
2017-07-08T10:39:10.350Z,21.74
2017-07-08T10:40:20.551Z,21.6
2017-07-08T10:41:30.525Z,21.54
2017-07-08T10:42:40.859Z,21.62
2017-07-08T10:43:51.144Z,21.56
2017-07-08T10:45:01.432Z,21.58
2017-07-08T10:46:11.954Z,21.59
2017-07-08T10:47:22.256Z,21.5
2017-07-08T10:48:32.521Z,21.6
2017-07-08T10:49:42.162Z,21.6
2017-07-08T10:50:52.452Z,21.68
2017-07-08T10:52:03.003Z,21.6
2017-07-08T10:53:13.299Z,21.5
2017-07-08T10:54:23.259Z,21.53
2017-07-08T10:55:33.228Z,21.47
2017-07-08T10:56:43.496Z,21.54
2017-07-08T10:57:54.017Z,21.56
2017-07-08T10:59:03.969Z,21.53
2017-07-08T11:00:14.257Z,21.56
2017-07-08T11:01:24.204Z,21.63
2017-07-08T11:02:34.504Z,21.85
2017-07-08T11:03:44.724Z,22.01
2017-07-08T11:04:54.991Z,22.03
2017-07-08T11:06:05.241Z,22.15
2017-07-08T11:07:15.527Z,22.21
2017-07-08T11:08:25.815Z,22
2017-07-08T11:09:36.355Z,22.15
2017-07-08T11:10:46.632Z,22.31
2017-07-08T11:11:56.946Z,22.36
2017-07-08T11:13:07.249Z,22.56
2017-07-08T11:14:17.514Z,22.65
2017-07-08T11:15:28.094Z,22.67
2017-07-08T11:16:38.381Z,22.68
2017-07-08T11:17:48.341Z,22.52
2017-07-08T11:18:58.706Z,22.63
2017-07-08T11:20:08.984Z,22.62
2017-07-08T11:21:19.510Z,22.65
2017-07-08T11:22:29.461Z,22.76
2017-07-08T11:23:39.754Z,22.86
2017-07-08T11:24:50.045Z,22.71
2017-07-08T11:26:00.339Z,22.55
2017-07-08T11:27:10.849Z,22.31
2017-07-08T11:28:20.813Z,22.3
2017-07-08T11:29:31.091Z,22.3
2017-07-08T11:30:41.358Z,22.21
2017-07-08T11:31:51.639Z,22.22
2017-07-08T11:33:02.174Z,22.25
2017-07-08T11:34:12.470Z,22.12
2017-07-08T11:35:22.428Z,22.18
2017-07-08T11:36:32.701Z,22.15
2017-07-08T11:37:42.341Z,22.22
2017-07-08T11:38:52.873Z,22.18
2017-07-08T11:40:03.169Z,22.12
2017-07-08T11:41:13.463Z,22.15
2017-07-08T11:42:23.442Z,22.21
2017-07-08T11:43:33.406Z,22.14
2017-07-08T11:44:43.921Z,22.12
2017-07-08T11:45:54.214Z,22.23
2017-07-08T11:47:04.484Z,22.14
2017-07-08T11:48:14.780Z,22.26
2017-07-08T11:49:25.057Z,22.37
2017-07-08T11:50:35.580Z,22.52
2017-07-08T11:51:45.862Z,22.71
2017-07-08T11:52:56.131Z,22.73
2017-07-08T11:54:06.404Z,22.73
2017-07-08T11:55:16.679Z,22.68
2017-07-08T11:56:26.902Z,22.74
2017-07-08T11:57:37.197Z,22.84
2017-07-08T11:58:47.541Z,22.89
2017-07-08T11:59:57.850Z,22.84
2017-07-08T12:01:08.120Z,22.84
2017-07-08T12:02:18.643Z,22.84
2017-07-08T12:03:28.924Z,22.86
2017-07-08T12:04:39.215Z,22.84
2017-07-08T12:05:49.203Z,22.91
2017-07-08T12:06:59.484Z,22.77
2017-07-08T12:08:10.011Z,22.83
2017-07-08T12:09:19.647Z,23.01
2017-07-08T12:10:29.942Z,23.02
2017-07-08T12:11:39.914Z,23.06
2017-07-08T12:12:50.186Z,23.21
2017-07-08T12:14:00.708Z,23.02
2017-07-08T12:15:10.982Z,23.1
2017-07-08T12:16:21.258Z,23.34
2017-07-08T12:17:31.227Z,23.44
2017-07-08T12:18:41.120Z,23.39
2017-07-08T12:19:51.646Z,23.81
2017-07-08T12:21:01.603Z,24.26
2017-07-08T12:22:11.911Z,24.28
2017-07-08T12:23:22.190Z,23.94
2017-07-08T12:24:32.164Z,23.91
2017-07-08T12:25:42.702Z,24.03
2017-07-08T12:26:52.973Z,24.16
2017-07-08T12:28:03.229Z,23.92
2017-07-08T12:29:13.198Z,24
2017-07-08T12:30:23.475Z,24.03
2017-07-08T12:31:33.995Z,24.07
2017-07-08T12:32:44.265Z,24
2017-07-08T12:33:54.543Z,24.03
2017-07-08T12:35:04.855Z,24.04
2017-07-08T12:36:15.124Z,24.14
2017-07-08T12:37:25.343Z,24.03
2017-07-08T12:38:35.298Z,23.94
2017-07-08T12:39:45.577Z,23.74
2017-07-08T12:40:55.865Z,23.7
2017-07-08T12:42:06.148Z,23.58
2017-07-08T12:43:16.687Z,23.47
2017-07-08T12:44:26.976Z,23.37
2017-07-08T12:45:37.252Z,23.16
2017-07-08T12:46:47.206Z,23.18
2017-07-08T12:47:57.187Z,23.18
2017-07-08T12:49:07.712Z,23.33
2017-07-08T12:50:17.679Z,23.49
2017-07-08T12:51:27.960Z,23.59
2017-07-08T12:52:38.245Z,24.04
2017-07-08T12:53:48.511Z,24.25
2017-07-08T12:54:58.738Z,24.5
2017-07-08T12:56:09.031Z,24.62
2017-07-08T12:57:18.999Z,24.62
2017-07-08T12:58:29.282Z,24.82
2017-07-08T12:59:39.228Z,24.86
2017-07-08T13:00:49.460Z,24.86
2017-07-08T13:01:59.734Z,25.04
2017-07-08T13:03:10.025Z,25.09
2017-07-08T13:04:19.666Z,24.86
2017-07-08T13:05:29.952Z,25.04
2017-07-08T13:06:40.474Z,25.44
2017-07-08T13:07:50.772Z,25.61
2017-07-08T13:09:01.049Z,25.49
2017-07-08T13:10:11.329Z,25.25
2017-07-08T13:11:21.618Z,25.24
2017-07-08T13:12:32.162Z,25.25
2017-07-08T13:13:42.434Z,25.26
2017-07-08T13:14:52.397Z,25.06
2017-07-08T13:16:02.362Z,25.21
2017-07-08T13:17:12.330Z,25.01
2017-07-08T13:18:22.880Z,25.07
2017-07-08T13:19:32.846Z,25.25
2017-07-08T13:20:43.123Z,25.25
2017-07-08T13:21:53.413Z,25.4
2017-07-08T13:23:03.690Z,25.71
2017-07-08T13:24:14.230Z,26.04
2017-07-08T13:25:24.537Z,25.98
2017-07-08T13:26:34.836Z,26.1
2017-07-08T13:27:45.118Z,25.98
2017-07-08T13:28:55.083Z,25.96
2017-07-08T13:30:05.620Z,25.83
2017-07-08T13:31:15.909Z,25.77
2017-07-08T13:32:26.198Z,25.68
2017-07-08T13:33:36.497Z,25.71
2017-07-08T13:34:46.776Z,25.63
2017-07-08T13:35:57.327Z,25.48
2017-07-08T13:37:07.602Z,25.59
2017-07-08T13:38:17.572Z,25.61
2017-07-08T13:39:27.852Z,25.51
2017-07-08T13:40:38.160Z,25.46
2017-07-08T13:41:48.724Z,25.46
2017-07-08T13:42:59.024Z,25.33
2017-07-08T13:44:08.995Z,25.41
2017-07-08T13:45:19.297Z,25.29
2017-07-08T13:46:29.292Z,25.49
2017-07-08T13:47:39.511Z,25.86
2017-07-08T13:48:49.776Z,26.06
2017-07-08T13:49:59.727Z,26.19
2017-07-08T13:51:09.997Z,26.03
2017-07-08T13:52:20.292Z,26.3
2017-07-08T13:53:30.818Z,26.53
2017-07-08T13:54:41.116Z,26.59
2017-07-08T13:55:51.410Z,26.45
2017-07-08T13:57:01.393Z,26.3
2017-07-08T13:58:11.680Z,26.34
2017-07-08T13:59:22.209Z,26.18
2017-07-08T14:00:32.494Z,26.03
2017-07-08T14:01:42.799Z,25.83
2017-07-08T14:02:53.083Z,25.85
2017-07-08T14:04:03.386Z,26.16
2017-07-08T14:05:13.937Z,26.59
2017-07-08T14:06:23.589Z,26.55
2017-07-08T14:07:33.869Z,26.46
2017-07-08T14:08:44.154Z,26.31
2017-07-08T14:09:54.435Z,26.29
2017-07-08T14:11:04.651Z,26.45
2017-07-08T14:12:14.993Z,26.3
2017-07-08T14:13:25.293Z,26.33
2017-07-08T14:14:35.280Z,26.42
2017-07-08T14:15:45.557Z,26.6
2017-07-08T14:16:55.834Z,26.83
2017-07-08T14:18:06.115Z,26.81
2017-07-08T14:19:16.087Z,26.71
2017-07-08T14:20:26.064Z,26.33
2017-07-08T14:21:36.354Z,26.18
2017-07-08T14:22:46.891Z,26.06
2017-07-08T14:23:56.851Z,26.22
2017-07-08T14:25:07.140Z,26.33
2017-07-08T14:26:17.418Z,26.41
2017-07-08T14:27:27.697Z,26.39
2017-07-08T14:28:38.318Z,26.55
2017-07-08T14:29:48.598Z,26.73
2017-07-08T14:30:58.566Z,26.92
2017-07-08T14:32:08.541Z,26.91
2017-07-08T14:33:18.819Z,27.13
2017-07-08T14:34:28.713Z,27.29
2017-07-08T14:35:38.676Z,27.23
2017-07-08T14:36:48.327Z,27.19
2017-07-08T14:37:58.288Z,27.25
2017-07-08T14:39:08.566Z,27.1
2017-07-08T14:40:19.133Z,26.93
2017-07-08T14:41:29.418Z,26.88
2017-07-08T14:42:39.717Z,27
2017-07-08T14:43:49.672Z,27.33
2017-07-08T14:44:59.953Z,27.55
2017-07-08T14:46:10.487Z,27.75
2017-07-08T14:47:20.772Z,27.78
2017-07-08T14:48:31.071Z,28.18
2017-07-08T14:49:41.340Z,28.35
2017-07-08T14:50:51.309Z,28.15
2017-07-08T14:52:01.853Z,28
2017-07-08T14:53:12.139Z,27.76
2017-07-08T14:54:22.437Z,27.57
2017-07-08T14:55:32.733Z,27.53
2017-07-08T14:56:43.023Z,27.19
2017-07-08T14:57:53.565Z,27.15
2017-07-08T14:59:03.832Z,27.28
2017-07-08T15:00:13.803Z,27.03
2017-07-08T15:01:23.772Z,27.28
2017-07-08T15:02:34.073Z,27.33
2017-07-08T15:03:44.601Z,27.34
2017-07-08T15:04:54.879Z,27.58
2017-07-08T15:06:05.159Z,27.52
2017-07-08T15:07:15.446Z,27.72